Time;durP1;ratioP1;P1;durP2;ratioP2;P2;SDS_P1;SDS_P2;PMS_P1;PMS_P2;Temp;Humidity;BMP_temperature;BMP_pressure;BME280_temperature;BME280_humidity;BME280_pressure;Samples;Min_cycle;Max_cycle;Signal;HPM_P1;HPM_P2
2022/03/29 00:01:02;;;;;;;6.95;1.88;;;1.60;99.90;;;;;;4932710;29;20402;-84
2022/03/29 00:03:30;;;;;;;4.82;2.00;;;1.50;99.90;;;;;;4933161;29;20402;-86
2022/03/29 00:05:58;;;;;;;7.88;2.30;;;1.60;99.90;;;;;;4934414;29;20409;-85
2022/03/29 00:08:25;;;;;;;7.80;2.38;;;1.50;99.90;;;;;;4932771;29;20923;-84
2022/03/29 00:10:53;;;;;;;6.35;2.40;;;1.50;99.90;;;;;;4933103;29;20402;-85
2022/03/29 00:13:21;;;;;;;5.20;1.97;;;1.50;99.90;;;;;;4934347;29;20426;-86
2022/03/29 00:15:48;;;;;;;7.95;2.47;;;1.50;99.90;;;;;;4934343;29;20398;-84
2022/03/29 00:18:16;;;;;;;5.30;1.98;;;1.50;99.90;;;;;;4933191;29;20494;-85
2022/03/29 00:20:44;;;;;;;5.88;1.92;;;1.50;99.90;;;;;;4929243;29;20478;-85
2022/03/29 00:23:12;;;;;;;4.72;1.83;;;1.30;99.90;;;;;;4932987;29;20432;-85
2022/03/29 00:25:39;;;;;;;8.70;2.40;;;1.30;99.90;;;;;;4932692;29;20416;-84
2022/03/29 00:28:07;;;;;;;4.93;1.73;;;1.30;99.90;;;;;;4934105;29;20406;-85
2022/03/29 00:30:35;;;;;;;6.82;1.70;;;1.30;99.90;;;;;;4926039;29;20413;-84
2022/03/29 00:33:02;;;;;;;6.13;1.70;;;1.40;99.90;;;;;;4937780;29;20393;-85
2022/03/29 00:35:30;;;;;;;3.00;1.40;;;1.30;99.90;;;;;;4936458;29;20415;-85
2022/03/29 00:37:58;;;;;;;5.97;1.73;;;1.20;99.90;;;;;;4952451;29;20417;-84
2022/03/29 00:40:27;;;;;;;5.70;1.70;;;1.20;99.90;;;;;;4952310;29;20438;-85
2022/03/29 00:42:54;;;;;;;3.08;1.60;;;1.20;99.90;;;;;;4952549;29;20398;-85
2022/03/29 00:45:23;;;;;;;4.85;1.52;;;1.30;99.90;;;;;;4936527;29;20408;-84
2022/03/29 00:47:51;;;;;;;6.03;1.80;;;1.30;99.90;;;;;;4937546;29;20896;-85
2022/03/29 00:50:20;;;;;;;6.32;2.05;;;1.30;99.90;;;;;;4936455;29;20860;-84
2022/03/29 00:52:48;;;;;;;6.53;1.40;;;1.30;99.90;;;;;;4952132;29;20410;-84
2022/03/29 00:55:16;;;;;;;4.70;1.33;;;1.20;99.90;;;;;;4936403;29;20394;-84
2022/03/29 00:57:46;;;;;;;5.22;1.30;;;1.10;99.90;;;;;;4952211;29;20884;-85
2022/03/29 01:00:15;;;;;;;4.70;1.20;;;1.20;99.90;;;;;;4936251;29;20401;-86
2022/03/29 01:02:44;;;;;;;4.40;1.27;;;1.30;99.90;;;;;;4937108;29;20413;-85
2022/03/29 01:05:12;;;;;;;4.53;0.95;;;1.20;99.90;;;;;;4936288;29;20492;-84
2022/03/29 01:07:40;;;;;;;5.43;0.97;;;1.20;99.90;;;;;;4936144;29;20405;-85
2022/03/29 01:10:08;;;;;;;4.53;1.00;;;1.10;99.90;;;;;;4935992;29;20493;-84
2022/03/29 01:12:37;;;;;;;3.13;0.73;;;1.10;99.90;;;;;;4952005;29;20394;-85
2022/03/29 01:15:10;;;;;;;3.97;0.90;;;1.10;99.90;;;;;;4937122;29;20428;-84
2022/03/29 01:17:41;;;;;;;4.68;0.80;;;1.10;99.90;;;;;;4937138;29;20426;-84
2022/03/29 01:20:17;;;;;;;3.00;0.80;;;1.10;99.90;;;;;;4937187;29;20406;-85
2022/03/29 01:22:47;;;;;;;3.05;0.80;;;1.20;99.90;;;;;;4937060;29;20484;-85
2022/03/29 01:25:30;;;;;;;2.37;0.73;;;1.20;99.90;;;;;;4937092;29;20394;-84
2022/03/29 01:27:59;;;;;;;4.03;0.88;;;1.20;99.90;;;;;;4936965;29;20796;-85
2022/03/29 01:30:27;;;;;;;4.20;1.00;;;1.20;99.90;;;;;;4936886;29;20402;-85
2022/03/29 01:32:56;;;;;;;4.32;0.60;;;1.20;99.90;;;;;;4936749;29;20393;-85
2022/03/29 01:35:24;;;;;;;2.53;0.60;;;1.20;99.90;;;;;;4935656;29;20485;-85
2022/03/29 01:37:53;;;;;;;2.33;0.60;;;1.20;99.90;;;;;;4936675;29;20730;-84
2022/03/29 01:40:24;;;;;;;4.45;0.90;;;1.20;99.90;;;;;;4936701;29;20404;-85
2022/03/29 01:42:57;;;;;;;3.42;0.45;;;1.10;99.90;;;;;;4936728;29;20406;-84
2022/03/29 01:45:30;;;;;;;3.85;0.50;;;1.10;99.90;;;;;;4936690;29;20393;-84
2022/03/29 01:47:58;;;;;;;4.45;0.50;;;1.10;99.90;;;;;;4936735;29;20869;-84
2022/03/29 01:50:27;;;;;;;2.30;0.50;;;1.10;99.90;;;;;;4936527;29;20437;-84
2022/03/29 01:52:55;;;;;;;4.60;0.40;;;1.10;99.90;;;;;;4936531;29;20897;-84
2022/03/29 01:55:23;;;;;;;1.40;0.40;;;1.10;99.90;;;;;;4935213;29;20398;-84
2022/03/29 01:57:53;;;;;;;1.73;0.45;;;1.00;99.90;;;;;;4936549;29;20615;-85
2022/03/29 02:03:28;;;;;;;1.77;0.40;;;1.10;99.90;;;;;;5057886;23;20429;-87
2022/03/29 02:05:59;;;;;;;1.08;0.55;;;1.00;99.90;;;;;;4934768;29;20402;-86
2022/03/29 02:08:26;;;;;;;1.50;0.25;;;1.00;99.90;;;;;;4935132;29;20470;-87
2022/03/29 02:10:55;;;;;;;2.10;0.30;;;1.00;99.90;;;;;;4936233;29;20413;-86
2022/03/29 02:13:23;;;;;;;1.00;0.30;;;1.00;99.90;;;;;;4935186;29;20408;-87
2022/03/29 02:15:50;;;;;;;0.88;0.30;;;1.00;99.90;;;;;;4936173;29;20880;-86
2022/03/29 02:18:18;;;;;;;1.20;0.30;;;1.00;99.90;;;;;;4936263;29;20791;-86
2022/03/29 02:20:47;;;;;;;1.50;0.40;;;1.00;99.90;;;;;;4933671;29;20521;-86
2022/03/29 02:23:15;;;;;;;2.83;0.38;;;1.00;99.90;;;;;;4936016;29;20405;-86
2022/03/29 02:25:47;;;;;;;1.52;0.30;;;1.00;99.90;;;;;;4934908;29;20461;-86
2022/03/29 02:28:15;;;;;;;1.33;0.22;;;1.00;99.90;;;;;;4935084;29;20800;-87
2022/03/29 02:30:43;;;;;;;1.07;0.40;;;0.90;99.90;;;;;;4934704;29;20441;-86
2022/03/29 02:33:11;;;;;;;1.38;0.45;;;1.00;99.90;;;;;;4932973;29;20505;-87
2022/03/29 02:35:38;;;;;;;1.70;0.50;;;0.90;99.90;;;;;;4929670;29;20895;-87
2022/03/29 02:38:07;;;;;;;3.70;0.40;;;0.80;99.90;;;;;;4935794;29;20880;-86
2022/03/29 02:40:34;;;;;;;0.82;0.40;;;0.80;99.90;;;;;;4931404;29;20410;-86
2022/03/29 02:43:02;;;;;;;1.15;0.40;;;0.70;99.90;;;;;;4900185;29;20403;-87
2022/03/29 02:45:30;;;;;;;2.00;0.50;;;0.70;99.90;;;;;;4916988;29;20399;-87
2022/03/29 02:48:01;;;;;;;1.20;0.35;;;0.70;99.90;;;;;;4931422;29;20444;-87
2022/03/29 02:50:28;;;;;;;1.10;0.40;;;0.80;99.90;;;;;;4916567;29;20415;-85
2022/03/29 02:52:59;;;;;;;2.07;0.30;;;0.70;99.90;;;;;;4932208;29;20411;-87
2022/03/29 02:55:29;;;;;;;2.40;0.30;;;0.60;99.90;;;;;;4907871;29;20886;-86
2022/03/29 02:57:58;;;;;;;1.10;0.35;;;0.70;99.90;;;;;;4899801;29;20822;-86
2022/03/29 03:00:26;;;;;;;1.38;0.50;;;0.70;99.90;;;;;;4902790;29;20409;-85
2022/03/29 03:02:55;;;;;;;1.83;0.55;;;0.70;99.90;;;;;;4935110;29;20433;-85
2022/03/29 03:05:26;;;;;;;2.80;0.53;;;0.60;99.90;;;;;;4934357;29;20421;-88
2022/03/29 03:07:54;;;;;;;3.00;0.50;;;0.70;99.90;;;;;;4935650;29;20390;-86
2022/03/29 03:10:22;;;;;;;1.23;0.40;;;0.60;99.90;;;;;;4934161;29;20908;-86
2022/03/29 03:12:50;;;;;;;1.17;0.43;;;0.60;99.90;;;;;;4934031;29;20397;-87
2022/03/29 03:15:20;;;;;;;2.22;0.45;;;0.60;99.90;;;;;;4950051;29;20476;-86
2022/03/29 03:17:50;;;;;;;2.83;0.40;;;0.60;99.90;;;;;;4933874;29;20967;-86
2022/03/29 03:20:18;;;;;;;1.25;0.40;;;0.60;99.90;;;;;;4935294;29;20398;-85
2022/03/29 03:22:46;;;;;;;2.90;0.40;;;0.50;99.90;;;;;;4918164;29;20439;-87
2022/03/29 03:25:14;;;;;;;2.70;0.60;;;0.60;99.90;;;;;;4933934;29;20442;-86
2022/03/29 03:27:41;;;;;;;1.52;0.40;;;0.40;99.90;;;;;;4933913;29;20402;-85
2022/03/29 03:30:13;;;;;;;0.98;0.40;;;0.40;99.90;;;;;;4934940;29;20777;-86
2022/03/29 03:32:41;;;;;;;1.92;0.40;;;0.50;99.90;;;;;;4933765;29;20431;-86
2022/03/29 03:35:11;;;;;;;1.38;0.40;;;0.30;99.90;;;;;;4933858;29;20398;-87
2022/03/29 03:37:39;;;;;;;1.50;0.50;;;0.40;99.90;;;;;;4933700;29;20413;-87
2022/03/29 03:40:09;;;;;;;0.90;0.40;;;0.30;99.90;;;;;;4933630;29;20426;-86
2022/03/29 03:42:38;;;;;;;1.10;0.40;;;0.30;99.90;;;;;;4934032;29;20417;-87
2022/03/29 03:45:07;;;;;;;1.27;0.40;;;0.30;99.90;;;;;;4934703;29;20401;-86
2022/03/29 03:47:35;;;;;;;2.00;0.60;;;0.40;99.90;;;;;;4934806;29;20405;-86
2022/03/29 03:50:08;;;;;;;1.77;0.47;;;0.40;99.90;;;;;;4949554;29;20816;-87
2022/03/29 03:52:36;;;;;;;2.03;0.47;;;0.40;99.90;;;;;;4949577;29;20402;-85
2022/03/29 03:55:05;;;;;;;1.48;0.60;;;0.20;99.90;;;;;;4949062;29;20414;-86
2022/03/29 03:57:32;;;;;;;1.15;0.45;;;0.20;99.90;;;;;;4949731;29;20397;-85
2022/03/29 04:00:01;;;;;;;3.20;0.60;;;0.20;99.90;;;;;;4934684;29;20922;-84
2022/03/29 04:02:41;;;;;;;9.27;0.82;;;0.20;99.90;;;;;;4928158;29;20423;-82
2022/03/29 04:05:13;;;;;;;1.42;0.40;;;0.20;99.90;;;;;;4940774;29;20967;-84
2022/03/29 04:07:41;;;;;;;1.80;0.50;;;0.30;99.90;;;;;;4938383;29;20856;-83
2022/03/29 04:10:10;;;;;;;1.05;0.57;;;0.30;99.90;;;;;;4930610;29;20413;-83
2022/03/29 04:12:37;;;;;;;2.45;0.60;;;0.20;99.90;;;;;;4937857;29;20397;-83
2022/03/29 04:15:06;;;;;;;2.22;0.80;;;0.10;99.90;;;;;;4937907;29;20416;-82
2022/03/29 04:17:34;;;;;;;1.38;0.60;;;0.20;99.90;;;;;;4952562;29;20449;-82
2022/03/29 04:20:02;;;;;;;2.92;0.63;;;0.20;99.90;;;;;;4937197;29;20496;-82
2022/03/29 04:22:30;;;;;;;1.47;0.60;;;0.30;99.90;;;;;;4938088;29;20896;-83
2022/03/29 04:24:57;;;;;;;1.55;0.60;;;0.30;99.90;;;;;;4938148;29;20393;-83
2022/03/29 04:27:25;;;;;;;2.73;0.50;;;0.30;99.90;;;;;;4938040;29;20398;-82
2022/03/29 04:29:53;;;;;;;1.38;0.50;;;0.20;99.90;;;;;;4937874;29;20950;-83
2022/03/29 04:32:20;;;;;;;2.63;0.70;;;0.10;99.90;;;;;;4937980;29;20768;-82
2022/03/29 04:34:48;;;;;;;2.22;0.80;;;0.20;99.90;;;;;;4936718;29;20404;-83
2022/03/29 04:37:16;;;;;;;1.98;0.65;;;0.30;99.90;;;;;;4936049;29;20410;-82
2022/03/29 04:39:43;;;;;;;1.50;0.50;;;0.20;99.90;;;;;;4937693;29;20397;-83
2022/03/29 04:42:11;;;;;;;1.63;0.40;;;0.30;99.90;;;;;;4950357;29;20461;-82
2022/03/29 04:44:39;;;;;;;0.95;0.40;;;0.30;99.90;;;;;;4936807;29;20434;-83
2022/03/29 04:47:07;;;;;;;0.80;0.50;;;0.20;99.90;;;;;;4937735;29;20398;-83
2022/03/29 04:49:34;;;;;;;0.52;0.50;;;0.20;99.90;;;;;;4933898;29;20754;-84
2022/03/29 04:52:02;;;;;;;0.90;0.50;;;0.30;99.90;;;;;;4918663;29;20423;-83
2022/03/29 04:54:30;;;;;;;0.88;0.60;;;0.20;99.90;;;;;;4918472;29;20424;-83
2022/03/29 04:57:00;;;;;;;0.90;0.45;;;0.30;99.90;;;;;;4918483;29;20455;-82
2022/03/29 04:59:27;;;;;;;0.88;0.60;;;0.40;99.90;;;;;;4918479;29;20402;-83
2022/03/29 05:01:56;;;;;;;0.57;0.43;;;0.30;99.90;;;;;;4927469;29;20888;-82
2022/03/29 05:04:24;;;;;;;0.90;0.60;;;0.20;99.90;;;;;;4937516;29;20401;-83
2022/03/29 05:06:51;;;;;;;0.95;0.60;;;0.30;99.90;;;;;;4936101;29;20503;-83
2022/03/29 05:09:19;;;;;;;0.80;0.68;;;0.10;99.90;;;;;;4936152;29;20432;-81
2022/03/29 05:11:47;;;;;;;0.70;0.60;;;0.10;99.90;;;;;;4951920;29;20410;-83
2022/03/29 05:14:14;;;;;;;0.80;0.70;;;0.10;99.90;;;;;;4936582;29;20417;-82
2022/03/29 05:16:42;;;;;;;0.50;0.50;;;0.20;99.90;;;;;;4936578;29;20479;-83
2022/03/29 05:19:09;;;;;;;0.65;0.60;;;0.20;99.90;;;;;;4935072;29;20456;-83
2022/03/29 05:21:37;;;;;;;0.80;0.70;;;0.30;99.90;;;;;;4936038;29;20398;-83
2022/03/29 05:24:05;;;;;;;0.63;0.50;;;0.40;99.90;;;;;;4946960;29;20394;-84
2022/03/29 05:26:33;;;;;;;1.23;0.60;;;0.40;99.90;;;;;;4936078;29;20406;-84
2022/03/29 05:29:02;;;;;;;1.02;0.60;;;0.50;99.90;;;;;;4935890;29;20406;-83
2022/03/29 05:31:30;;;;;;;0.50;0.50;;;0.50;99.90;;;;;;4919711;29;20420;-83
2022/03/29 05:33:58;;;;;;;1.20;0.50;;;0.40;99.90;;;;;;4922143;29;20398;-83
2022/03/29 05:36:26;;;;;;;0.60;0.60;;;0.30;99.90;;;;;;4936480;29;20845;-83
2022/03/29 05:38:54;;;;;;;0.80;0.60;;;0.10;99.90;;;;;;4936888;29;20776;-82
2022/03/29 05:41:22;;;;;;;0.77;0.55;;;0.20;99.90;;;;;;4936747;29;20409;-83
2022/03/29 05:43:50;;;;;;;0.95;0.65;;;0.20;99.90;;;;;;4936833;29;20401;-83
2022/03/29 05:49:04;;;;;;;0.63;0.50;;;0.20;99.90;;;;;;4936633;29;20864;-83
2022/03/29 05:51:32;;;;;;;1.50;0.88;;;0.30;99.90;;;;;;4946891;29;20418;-83
2022/03/29 05:54:01;;;;;;;1.00;0.70;;;0.30;99.90;;;;;;4930302;29;20400;-83
2022/03/29 05:56:28;;;;;;;0.60;0.50;;;0.30;99.90;;;;;;4936574;29;20543;-83
2022/03/29 05:58:57;;;;;;;1.10;0.57;;;0.30;99.90;;;;;;4936341;29;20756;-83
2022/03/29 06:01:25;;;;;;;0.52;0.50;;;0.20;99.90;;;;;;4931333;29;20426;-83
2022/03/29 06:03:52;;;;;;;0.60;0.50;;;0.20;99.90;;;;;;4930986;29;20422;-83
2022/03/29 06:06:20;;;;;;;1.20;0.40;;;0.20;99.90;;;;;;4950486;29;20871;-82
2022/03/29 06:08:48;;;;;;;0.90;0.50;;;0.00;99.90;;;;;;4934995;29;20416;-82
2022/03/29 06:11:16;;;;;;;0.70;0.50;;;-0.10;99.90;;;;;;4919074;29;20414;-82
2022/03/29 06:13:44;;;;;;;1.20;0.50;;;-0.30;99.90;;;;;;4934382;29;20398;-82
2022/03/29 06:16:12;;;;;;;0.95;0.55;;;-0.20;99.90;;;;;;4935720;29;20398;-83
2022/03/29 06:18:39;;;;;;;0.52;0.40;;;-0.20;99.90;;;;;;4936036;29;20398;-83
2022/03/29 06:21:07;;;;;;;0.93;0.40;;;-0.20;99.90;;;;;;4936132;29;20397;-82
2022/03/29 06:23:35;;;;;;;0.30;0.30;;;-0.40;99.90;;;;;;4950702;29;20398;-82
2022/03/29 06:26:02;;;;;;;0.30;0.30;;;-0.50;99.90;;;;;;4936053;29;20734;-83
2022/03/29 06:28:30;;;;;;;0.63;0.50;;;-0.40;99.90;;;;;;4935069;29;20404;-82
2022/03/29 06:30:58;;;;;;;0.40;0.40;;;-0.50;99.90;;;;;;4935913;29;20457;-83
2022/03/29 06:33:26;;;;;;;0.43;0.40;;;-0.50;99.90;;;;;;4932950;29;20417;-83
2022/03/29 06:35:54;;;;;;;0.40;0.30;;;-0.60;99.90;;;;;;4928061;29;20399;-82
2022/03/29 06:38:22;;;;;;;0.73;0.43;;;-0.40;99.90;;;;;;4924784;29;20398;-82
2022/03/29 06:40:50;;;;;;;0.40;0.40;;;-0.20;99.90;;;;;;4923074;29;20400;-83
2022/03/29 06:43:18;;;;;;;0.45;0.40;;;-0.10;99.90;;;;;;4929011;29;20412;-81
2022/03/29 06:45:46;;;;;;;0.50;0.50;;;-0.20;99.90;;;;;;4934501;29;20566;-83
2022/03/29 06:48:14;;;;;;;1.23;0.50;;;-0.30;99.90;;;;;;4934447;29;20394;-83
2022/03/29 06:50:42;;;;;;;0.98;0.60;;;-0.10;99.90;;;;;;4935143;29;20410;-83
2022/03/29 06:53:09;;;;;;;1.50;0.70;;;-0.10;99.90;;;;;;4935471;29;20784;-82
2022/03/29 06:55:37;;;;;;;0.75;0.60;;;-0.10;99.90;;;;;;4935333;29;20400;-82
2022/03/29 06:58:05;;;;;;;0.88;0.77;;;-0.20;99.90;;;;;;4950179;29;20394;-83
2022/03/29 07:00:33;;;;;;;1.05;0.73;;;-0.20;99.90;;;;;;4934145;29;20419;-83
2022/03/29 07:03:00;;;;;;;1.45;0.77;;;-0.20;99.90;;;;;;4935067;29;20964;-84
2022/03/29 07:05:28;;;;;;;1.15;0.73;;;-0.10;99.90;;;;;;4935191;29;20401;-82
2022/03/29 07:07:56;;;;;;;0.90;0.80;;;-0.30;99.90;;;;;;4929080;29;20467;-84
2022/03/29 07:13:10;;;;;;;1.35;0.77;;;-0.50;99.90;;;;;;4915077;29;20412;-83
2022/03/29 07:15:37;;;;;;;1.00;0.80;;;-0.50;99.90;;;;;;4916122;29;20483;-83
2022/03/29 07:18:06;;;;;;;1.02;0.80;;;-0.40;99.90;;;;;;4924381;29;20410;-83
2022/03/29 07:20:34;;;;;;;1.63;0.80;;;-0.40;99.90;;;;;;4934837;29;20474;-82
2022/03/29 07:23:02;;;;;;;1.10;0.70;;;-0.30;99.90;;;;;;4934175;29;20470;-83
2022/03/29 07:25:32;;;;;;;1.30;0.80;;;-0.20;99.90;;;;;;4904351;29;20452;-83
2022/03/29 07:28:00;;;;;;;0.80;0.60;;;-0.20;99.90;;;;;;4931161;29;20396;-83
2022/03/29 07:30:29;;;;;;;1.40;0.70;;;-0.10;99.90;;;;;;4914856;29;20403;-81
2022/03/29 07:32:58;;;;;;;2.05;0.80;;;-0.20;99.90;;;;;;4897877;29;20404;-82
2022/03/29 07:35:28;;;;;;;0.65;0.50;;;-0.20;99.90;;;;;;4929179;29;20412;-81
2022/03/29 07:37:57;;;;;;;1.03;0.67;;;-0.20;99.90;;;;;;4913392;29;20401;-83
2022/03/29 07:40:27;;;;;;;1.75;0.70;;;-0.10;99.90;;;;;;4913481;29;20396;-81
2022/03/29 07:42:55;;;;;;;0.85;0.65;;;-0.10;99.90;;;;;;4914607;29;20396;-81
2022/03/29 07:45:23;;;;;;;1.00;0.60;;;0.00;99.90;;;;;;4914572;29;20404;-81
2022/03/29 07:47:56;;;;;;;1.05;0.70;;;0.00;99.90;;;;;;4898873;29;20435;-82
2022/03/29 07:50:44;;;;;;;0.73;0.63;;;0.00;99.90;;;;;;4915509;29;20400;-82
2022/03/29 07:53:12;;;;;;;1.80;0.70;;;0.00;99.90;;;;;;4914453;29;20406;-83
2022/03/29 07:55:40;;;;;;;1.00;0.68;;;-0.10;99.90;;;;;;4915528;29;20511;-81
2022/03/29 07:58:14;;;;;;;1.30;0.65;;;0.00;99.90;;;;;;4915547;29;20961;-82
2022/03/29 08:00:42;;;;;;;1.02;0.60;;;0.10;99.90;;;;;;4915522;29;20399;-82
2022/03/29 08:03:15;;;;;;;0.57;0.50;;;0.00;99.90;;;;;;4929878;29;20482;-82
2022/03/29 08:05:44;;;;;;;0.53;0.50;;;-0.10;99.90;;;;;;4914381;29;20945;-81
2022/03/29 08:08:16;;;;;;;1.30;0.50;;;0.00;99.90;;;;;;4914500;29;20412;-82
2022/03/29 08:10:45;;;;;;;0.93;0.50;;;-0.10;99.90;;;;;;4916561;29;20415;-79
2022/03/29 08:13:14;;;;;;;0.60;0.40;;;-0.10;99.90;;;;;;4924712;29;20753;-82
2022/03/29 08:15:44;;;;;;;1.08;0.60;;;-0.20;99.90;;;;;;4932928;29;20402;-82
2022/03/29 08:18:12;;;;;;;0.70;0.50;;;-0.20;99.90;;;;;;4933237;29;20406;-80
2022/03/29 08:20:40;;;;;;;0.77;0.57;;;-0.30;99.90;;;;;;4933131;29;20761;-83
2022/03/29 08:23:09;;;;;;;1.08;0.50;;;-0.10;99.90;;;;;;4934232;29;20394;-82
2022/03/29 08:25:39;;;;;;;1.13;0.50;;;-0.10;99.90;;;;;;4934350;29;20404;-84
2022/03/29 08:28:07;;;;;;;0.65;0.50;;;-0.10;99.90;;;;;;4949138;29;20903;-83
2022/03/29 08:30:36;;;;;;;0.50;0.40;;;-0.10;99.90;;;;;;4934285;29;20482;-82
2022/03/29 08:33:03;;;;;;;0.70;0.55;;;-0.10;99.90;;;;;;4932821;29;20397;-81
2022/03/29 08:35:32;;;;;;;0.77;0.60;;;-0.10;99.90;;;;;;4933381;29;20404;-81
2022/03/29 08:38:01;;;;;;;0.50;0.50;;;-0.10;99.90;;;;;;4948313;29;20412;-84
2022/03/29 08:40:49;;;;;;;0.90;0.50;;;-0.20;99.90;;;;;;4931993;29;20488;-79
2022/03/29 08:43:17;;;;;;;1.55;0.60;;;-0.20;99.90;;;;;;4926810;29;20469;-83
2022/03/29 08:45:52;;;;;;;1.02;0.70;;;-0.20;99.90;;;;;;4916079;29;20778;-84
2022/03/29 08:48:27;;;;;;;0.82;0.50;;;-0.20;99.90;;;;;;4929927;29;20487;-83
2022/03/29 08:51:00;;;;;;;0.60;0.40;;;-0.10;99.90;;;;;;4931358;29;20425;-82
2022/03/29 08:53:49;;;;;;;0.50;0.43;;;0.00;99.90;;;;;;4918631;29;20416;-83
2022/03/29 08:56:17;;;;;;;0.80;0.60;;;0.10;99.90;;;;;;4917527;29;20467;-83
2022/03/29 08:58:45;;;;;;;1.50;0.60;;;0.10;99.90;;;;;;4928497;29;20415;-82
2022/03/29 09:01:13;;;;;;;0.50;0.40;;;0.00;99.90;;;;;;4935236;29;20755;-83
2022/03/29 09:03:40;;;;;;;2.70;0.50;;;0.00;99.90;;;;;;4935589;29;20452;-82
2022/03/29 09:06:09;;;;;;;1.80;0.73;;;-0.10;99.90;;;;;;4936335;29;20402;-80
2022/03/29 09:08:47;;;;;;;0.90;0.60;;;0.00;99.90;;;;;;4936292;29;20398;-82
2022/03/29 09:11:16;;;;;;;2.00;0.60;;;0.10;99.90;;;;;;4936030;29;20851;-80
2022/03/29 09:13:44;;;;;;;1.20;0.80;;;0.10;99.90;;;;;;4934668;29;20400;-81
2022/03/29 09:16:30;;;;;;;1.00;0.80;;;0.00;99.90;;;;;;4936525;29;20394;-82
2022/03/29 09:18:58;;;;;;;1.23;0.80;;;0.00;99.90;;;;;;4936944;29;20409;-86
2022/03/29 09:21:27;;;;;;;1.60;0.90;;;-0.20;99.90;;;;;;4936138;29;20417;-81
2022/03/29 09:24:07;;;;;;;1.40;0.90;;;-0.30;99.90;;;;;;4932926;29;20468;-82
2022/03/29 09:26:39;;;;;;;1.60;1.10;;;-0.20;99.90;;;;;;4922937;29;20763;-82
2022/03/29 09:29:19;;;;;;;1.50;0.90;;;-0.10;99.90;;;;;;4934563;29;20465;-83
2022/03/29 09:32:03;;;;;;;2.50;1.00;;;-0.10;99.90;;;;;;4946923;29;20422;-83
2022/03/29 09:34:31;;;;;;;1.50;0.90;;;-0.20;99.90;;;;;;4916579;29;20402;-83
2022/03/29 09:37:01;;;;;;;1.73;0.90;;;-0.20;99.90;;;;;;4916474;29;20400;-82
2022/03/29 09:39:41;;;;;;;1.63;0.90;;;-0.20;99.90;;;;;;4916521;29;20455;-82
2022/03/29 09:42:14;;;;;;;1.27;0.90;;;-0.30;99.90;;;;;;4935343;29;20461;-83
2022/03/29 09:44:47;;;;;;;2.35;1.10;;;-0.40;99.90;;;;;;4936511;29;20907;-82
2022/03/29 09:47:21;;;;;;;2.13;1.13;;;-0.50;99.90;;;;;;4951261;29;20424;-83
2022/03/29 09:49:56;;;;;;;3.17;1.10;;;-0.50;99.90;;;;;;4936491;29;20409;-83
2022/03/29 09:52:30;;;;;;;1.80;1.30;;;-0.60;99.90;;;;;;4936298;29;20416;-82
2022/03/29 09:55:04;;;;;;;2.42;1.10;;;-0.60;99.90;;;;;;4936302;29;20490;-81
2022/03/29 09:57:35;;;;;;;1.60;1.00;;;-0.50;99.90;;;;;;4930579;29;20427;-83
2022/03/29 10:00:07;;;;;;;2.58;1.20;;;-0.50;99.90;;;;;;4917148;29;20396;-84
2022/03/29 10:02:41;;;;;;;2.00;1.17;;;-0.60;99.90;;;;;;4915891;29;20795;-83
2022/03/29 10:05:13;;;;;;;1.58;0.93;;;-0.50;99.90;;;;;;4924729;29;20410;-81
2022/03/29 10:07:50;;;;;;;1.55;0.85;;;-0.50;99.90;;;;;;4921116;29;20470;-82
2022/03/29 10:10:18;;;;;;;1.70;1.00;;;-0.40;99.90;;;;;;4928594;29;20414;-81
2022/03/29 10:12:47;;;;;;;1.80;0.90;;;-0.50;99.90;;;;;;4923959;29;20411;-81
2022/03/29 10:15:37;;;;;;;1.40;0.80;;;-0.50;99.90;;;;;;4917033;29;20399;-82
2022/03/29 10:18:05;;;;;;;1.20;0.90;;;-0.50;99.90;;;;;;4924531;29;20449;-82
2022/03/29 10:20:37;;;;;;;1.52;0.90;;;-0.40;99.90;;;;;;4931152;29;20402;-81
2022/03/29 10:23:07;;;;;;;1.00;0.70;;;-0.30;99.90;;;;;;4935307;29;20409;-83
2022/03/29 10:25:36;;;;;;;1.00;0.70;;;-0.50;99.90;;;;;;4928476;29;20410;-83
2022/03/29 10:28:05;;;;;;;2.72;0.90;;;-0.50;99.90;;;;;;4919830;29;20435;-82
2022/03/29 10:30:35;;;;;;;1.38;0.80;;;-0.50;99.90;;;;;;4916812;29;20962;-83
2022/03/29 10:33:25;;;;;;;1.45;0.80;;;-0.50;99.90;;;;;;4915518;29;20943;-82
2022/03/29 10:35:59;;;;;;;2.17;0.88;;;-0.40;99.90;;;;;;4931700;29;20739;-83
2022/03/29 10:38:49;;;;;;;1.17;0.80;;;-0.50;99.90;;;;;;4916748;29;20400;-83
2022/03/29 10:41:26;;;;;;;2.63;1.08;;;-0.60;99.90;;;;;;4916681;29;20483;-83
2022/03/29 10:44:04;;;;;;;2.15;0.90;;;-0.50;99.90;;;;;;4915487;29;20399;-82
2022/03/29 10:46:41;;;;;;;1.60;0.90;;;-0.50;99.90;;;;;;4916851;29;20406;-82
2022/03/29 10:49:17;;;;;;;2.30;0.90;;;-0.40;99.90;;;;;;4916471;29;20399;-81
2022/03/29 10:51:44;;;;;;;1.95;0.93;;;-0.30;99.90;;;;;;4930987;29;20454;-82
2022/03/29 10:54:33;;;;;;;1.40;0.93;;;-0.20;99.90;;;;;;4900720;29;20413;-83
2022/03/29 10:57:18;;;;;;;1.25;0.85;;;-0.20;99.90;;;;;;4916393;29;20399;-82
2022/03/29 10:59:50;;;;;;;1.15;0.88;;;-0.10;99.90;;;;;;4901850;29;20400;-82
2022/03/29 11:02:22;;;;;;;1.70;0.90;;;-0.10;99.90;;;;;;4921710;29;20919;-83
2022/03/29 11:05:09;;;;;;;1.55;1.10;;;-0.20;99.90;;;;;;4935131;29;20394;-83
2022/03/29 11:07:39;;;;;;;3.10;1.10;;;-0.20;99.90;;;;;;4925524;29;20952;-82
2022/03/29 11:10:13;;;;;;;1.70;1.10;;;-0.20;99.90;;;;;;4916323;29;20412;-81
2022/03/29 11:12:45;;;;;;;1.70;0.93;;;-0.20;99.90;;;;;;4940066;29;20809;-82
2022/03/29 11:15:32;;;;;;;1.85;1.00;;;-0.20;99.90;;;;;;4924843;29;20471;-83
2022/03/29 11:18:01;;;;;;;2.35;0.90;;;-0.40;99.90;;;;;;4935102;29;20398;-82
2022/03/29 11:20:35;;;;;;;1.08;0.90;;;-0.40;99.90;;;;;;4933514;29;20469;-83
2022/03/29 11:23:04;;;;;;;1.80;1.02;;;-0.40;99.90;;;;;;4949762;29;20410;-82
2022/03/29 11:25:45;;;;;;;2.00;1.10;;;-0.40;99.90;;;;;;4934923;29;20481;-82
2022/03/29 11:28:16;;;;;;;1.85;1.00;;;-0.50;99.90;;;;;;4934195;28;20421;-83
2022/03/29 11:30:44;;;;;;;1.70;1.00;;;-0.50;99.90;;;;;;4923454;29;20474;-82
2022/03/29 11:33:12;;;;;;;1.30;0.90;;;-0.40;99.90;;;;;;4932334;29;20994;-83
2022/03/29 11:35:40;;;;;;;2.03;0.93;;;-0.20;99.90;;;;;;4934569;29;20760;-83
2022/03/29 11:38:08;;;;;;;1.30;0.80;;;-0.10;99.90;;;;;;4964341;28;20496;-83
2022/03/29 11:40:37;;;;;;;1.80;1.10;;;0.00;99.90;;;;;;4933391;29;20405;-82
2022/03/29 11:43:14;;;;;;;1.80;1.00;;;0.00;99.90;;;;;;4933388;29;20398;-82
2022/03/29 11:45:45;;;;;;;1.10;0.70;;;-0.20;99.90;;;;;;4934420;29;20401;-82
2022/03/29 11:48:14;;;;;;;1.60;0.90;;;-0.10;99.90;;;;;;4934587;29;20840;-83
2022/03/29 11:50:53;;;;;;;2.88;0.80;;;-0.10;99.90;;;;;;4934407;29;20891;-82
2022/03/29 11:53:32;;;;;;;1.80;0.60;;;-0.20;99.90;;;;;;4934330;29;20421;-82
2022/03/29 11:56:04;;;;;;;2.00;0.70;;;-0.30;99.90;;;;;;4926945;29;20455;-83
2022/03/29 11:58:36;;;;;;;1.95;0.73;;;-0.30;99.90;;;;;;4915354;29;20394;-82
2022/03/29 12:01:10;;;;;;;1.00;0.73;;;-0.50;99.90;;;;;;4923736;29;20394;-81
2022/03/29 12:03:41;;;;;;;1.60;0.80;;;-0.50;99.90;;;;;;4934296;29;20408;-83
2022/03/29 12:06:17;;;;;;;1.90;0.80;;;-0.50;99.90;;;;;;4921161;29;20450;-81
2022/03/29 12:08:50;;;;;;;1.23;0.73;;;-0.40;99.90;;;;;;4915305;29;20494;-82
2022/03/29 12:11:22;;;;;;;0.98;0.70;;;-0.20;99.90;;;;;;4915371;29;20874;-82
2022/03/29 12:14:02;;;;;;;0.95;0.70;;;-0.10;99.90;;;;;;4914020;29;20415;-83
2022/03/29 12:16:36;;;;;;;1.15;0.80;;;-0.10;99.90;;;;;;4915317;29;20883;-82
2022/03/29 12:19:11;;;;;;;1.38;0.70;;;-0.20;99.90;;;;;;4915423;29;20905;-83
2022/03/29 12:21:42;;;;;;;1.08;0.90;;;-0.30;99.90;;;;;;4915436;29;20458;-83
2022/03/29 12:24:10;;;;;;;1.40;0.90;;;-0.40;99.90;;;;;;4914204;29;20855;-83
2022/03/29 12:27:04;;;;;;;1.15;0.73;;;-0.50;99.90;;;;;;4918197;29;20399;-83
2022/03/29 12:29:34;;;;;;;1.52;0.90;;;-0.50;99.90;;;;;;4934184;29;20421;-82
2022/03/29 12:32:03;;;;;;;1.27;0.90;;;-0.50;99.90;;;;;;4939845;29;20500;-82
2022/03/29 12:34:32;;;;;;;1.30;0.90;;;-0.40;99.90;;;;;;4937735;29;20404;-82
2022/03/29 12:37:02;;;;;;;1.40;0.70;;;-0.40;99.90;;;;;;4937865;29;20425;-82
2022/03/29 12:39:39;;;;;;;1.30;0.80;;;-0.40;99.90;;;;;;4952442;29;20761;-81
2022/03/29 12:42:13;;;;;;;1.30;0.70;;;-0.50;99.90;;;;;;4936486;29;20900;-82
2022/03/29 12:44:52;;;;;;;1.10;0.80;;;-0.50;99.90;;;;;;4937138;29;20405;-82
2022/03/29 12:47:20;;;;;;;1.45;0.88;;;-0.50;99.90;;;;;;4918741;29;20396;-82
2022/03/29 12:49:49;;;;;;;1.90;0.80;;;-0.50;99.90;;;;;;4933273;29;20412;-82
2022/03/29 12:52:18;;;;;;;1.15;0.80;;;-0.60;99.90;;;;;;4936219;29;20465;-82
2022/03/29 12:54:48;;;;;;;0.90;0.80;;;-0.60;99.90;;;;;;4936798;29;20406;-82
2022/03/29 12:57:34;;;;;;;0.82;0.73;;;-0.60;99.90;;;;;;4937239;29;20857;-82
2022/03/29 13:00:09;;;;;;;1.55;0.73;;;-0.60;99.90;;;;;;4937548;29;20401;-82
2022/03/29 13:02:43;;;;;;;1.15;0.70;;;-0.60;99.90;;;;;;4937062;29;20477;-83
2022/03/29 13:05:11;;;;;;;1.50;0.70;;;-0.70;99.90;;;;;;4937287;29;20418;-81
2022/03/29 13:07:50;;;;;;;1.10;0.77;;;-0.60;99.90;;;;;;4937297;29;20402;-82
2022/03/29 13:10:20;;;;;;;1.30;0.73;;;-0.60;99.90;;;;;;4937261;29;20488;-82
2022/03/29 13:12:55;;;;;;;1.10;0.73;;;-0.70;99.90;;;;;;4937165;29;20410;-83
2022/03/29 13:15:41;;;;;;;2.45;0.90;;;-0.70;99.90;;;;;;4932257;29;20403;-83
2022/03/29 13:18:22;;;;;;;2.17;0.88;;;-0.70;99.90;;;;;;4937471;29;20390;-84